createdAt,value
2022-11-23T00:01:34.528Z,96436.63
2022-11-23T00:04:05.739Z,96433.34
2022-11-23T00:06:32.876Z,96424.06
2022-11-23T00:08:59.660Z,96427.84
2022-11-23T00:11:27.824Z,96424.69
2022-11-23T00:13:55.694Z,96425.88
2022-11-23T00:16:28.998Z,96439.13
2022-11-23T00:18:59.611Z,96431.78
2022-11-23T00:21:30.006Z,96431.28
2022-11-23T00:23:57.025Z,96432.47
2022-11-23T00:26:24.055Z,96432.84
2022-11-23T00:28:50.946Z,96431.47
2022-11-23T00:31:20.577Z,96436.03
2022-11-23T00:33:53.659Z,96429.47
2022-11-23T00:36:22.235Z,96440.13
2022-11-23T00:38:50.505Z,96428.53
2022-11-23T00:41:20.978Z,96435.00
2022-11-23T00:43:47.844Z,96443.31
2022-11-23T00:46:15.860Z,96440.28
2022-11-23T00:48:44.632Z,96444.00
2022-11-23T00:51:15.288Z,96432.41
2022-11-23T00:53:42.627Z,96431.97
2022-11-23T00:56:09.537Z,96430.66
2022-11-23T00:58:38.682Z,96434.53
2022-11-23T01:01:13.386Z,96428.19
2022-11-23T01:03:50.202Z,96438.28
2022-11-23T01:06:24.215Z,96435.47
2022-11-23T01:08:54.604Z,96437.56
2022-11-23T01:11:22.860Z,96435.44
2022-11-23T01:13:50.932Z,96452.06
2022-11-23T01:16:28.644Z,96444.78
2022-11-23T01:18:56.681Z,96440.81
2022-11-23T01:21:25.960Z,96445.38
2022-11-23T01:23:53.113Z,96452.59
2022-11-23T01:26:20.079Z,96458.09
2022-11-23T01:28:46.995Z,96457.38
2022-11-23T01:31:19.661Z,96453.41
2022-11-23T01:33:47.253Z,96455.34
2022-11-23T01:36:20.350Z,96460.84
2022-11-23T01:38:48.679Z,96452.56
2022-11-23T01:41:22.756Z,96458.34
2022-11-23T01:43:51.317Z,96457.75
2022-11-23T01:46:19.172Z,96468.47
2022-11-23T01:49:12.425Z,96467.31
2022-11-23T01:51:44.444Z,96459.88
2022-11-23T01:54:34.441Z,96473.09
2022-11-23T01:57:07.553Z,96475.06
2022-11-23T01:59:35.391Z,96477.25
2022-11-23T02:02:03.507Z,96473.16
2022-11-23T02:04:36.290Z,96486.13
2022-11-23T02:07:04.814Z,96480.25
2022-11-23T02:09:34.279Z,96480.47
2022-11-23T02:12:01.263Z,96482.53
2022-11-23T02:14:28.995Z,96482.06
2022-11-23T02:16:59.222Z,96485.03
2022-11-23T02:19:48.910Z,96487.00
2022-11-23T02:22:36.053Z,96487.25
2022-11-23T02:25:13.382Z,96489.09
2022-11-23T02:27:46.794Z,96483.31
2022-11-23T02:30:14.658Z,96480.03
2022-11-23T02:32:42.996Z,96493.72
2022-11-23T02:35:12.380Z,96482.63
2022-11-23T02:37:42.285Z,96485.19
2022-11-23T02:40:33.992Z,96482.63
2022-11-23T02:43:01.824Z,96488.69
2022-11-23T02:45:43.496Z,96496.50
2022-11-23T02:48:10.225Z,96493.94
2022-11-23T02:50:36.929Z,96495.69
2022-11-23T02:53:03.648Z,96496.50
2022-11-23T02:55:30.334Z,96497.22
2022-11-23T02:57:57.068Z,96501.31
2022-11-23T03:00:23.887Z,96502.03
2022-11-23T03:02:50.724Z,96500.91
2022-11-23T03:05:17.596Z,96503.38
2022-11-23T03:07:44.317Z,96491.34
2022-11-23T03:10:11.724Z,96505.13
2022-11-23T03:12:38.472Z,96504.09
2022-11-23T03:15:05.939Z,96507.34
2022-11-23T03:17:35.219Z,96509.72
2022-11-23T03:20:02.242Z,96513.84
2022-11-23T03:22:28.946Z,96511.16
2022-11-23T03:24:56.328Z,96517.00
2022-11-23T03:27:23.486Z,96514.31
2022-11-23T03:29:50.219Z,96511.75
2022-11-23T03:32:16.991Z,96516.78
2022-11-23T03:34:43.704Z,96509.91
2022-11-23T03:37:10.406Z,96509.91
2022-11-23T03:39:37.116Z,96512.34
2022-11-23T03:42:04.176Z,96515.75
2022-11-23T03:44:30.888Z,96513.19
2022-11-23T03:46:57.602Z,96504.41
2022-11-23T03:49:24.306Z,96502.59
2022-11-23T03:51:50.976Z,96501.78
2022-11-23T03:54:17.723Z,96500.84
2022-11-23T03:56:44.453Z,96501.78
2022-11-23T03:59:11.315Z,96501.97
2022-11-23T04:01:38.085Z,96502.28
2022-11-23T04:04:04.890Z,96512.69
2022-11-23T04:06:31.586Z,96509.41
2022-11-23T04:09:02.104Z,96506.13
2022-11-23T04:11:29.328Z,96495.22
2022-11-23T04:13:56.060Z,96495.44
2022-11-23T04:16:22.762Z,96486.31
2022-11-23T04:18:49.460Z,96483.09
2022-11-23T04:21:16.185Z,96484.97
2022-11-23T04:23:42.882Z,96488.78
2022-11-23T04:26:09.610Z,96480.47
2022-11-23T04:28:36.296Z,96490.94
2022-11-23T04:31:03.012Z,96486.03
2022-11-23T04:33:31.506Z,96480.88
2022-11-23T04:35:58.297Z,96474.81
2022-11-23T04:38:25.094Z,96475.75
2022-11-23T04:40:51.981Z,96481.50
2022-11-23T04:43:18.722Z,96476.16
2022-11-23T04:45:45.472Z,96476.06
2022-11-23T04:48:12.225Z,96485.28
2022-11-23T04:50:40.792Z,96484.97
2022-11-23T04:53:08.805Z,96487.44
2022-11-23T04:55:35.859Z,96485.59
2022-11-23T04:58:02.732Z,96476.94
2022-11-23T05:00:29.530Z,96477.56
2022-11-23T05:03:00.716Z,96477.44
2022-11-23T05:05:27.588Z,96480.59
2022-11-23T05:07:54.983Z,96475.97
2022-11-23T05:10:21.786Z,96468.06
2022-11-23T05:12:48.499Z,96465.47
2022-11-23T05:15:15.290Z,96461.03
2022-11-23T05:17:42.624Z,96474.59
2022-11-23T05:20:10.571Z,96464.22
2022-11-23T05:22:37.347Z,96475.13
2022-11-23T05:25:04.772Z,96468.22
2022-11-23T05:27:31.668Z,96468.22
2022-11-23T05:29:58.409Z,96464.63
2022-11-23T05:32:25.397Z,96466.97
2022-11-23T05:34:52.158Z,96476.19
2022-11-23T05:37:18.935Z,96471.88
2022-11-23T05:39:45.663Z,96467.47
2022-11-23T05:42:12.385Z,96476.81
2022-11-23T05:44:39.115Z,96478.34
2022-11-23T05:47:05.820Z,96476.59
2022-11-23T05:49:32.739Z,96472.28
2022-11-23T05:51:59.569Z,96466.91
2022-11-23T05:54:26.272Z,96473.69
2022-11-23T05:56:53.008Z,96480.34
2022-11-23T05:59:19.733Z,96479.44
2022-11-23T06:01:46.416Z,96478.41
2022-11-23T06:04:13.375Z,96484.38
2022-11-23T06:06:40.169Z,96480.88
2022-11-23T06:09:06.920Z,96479.94
2022-11-23T06:11:33.631Z,96479.94
2022-11-23T06:14:00.307Z,96484.63
2022-11-23T06:16:27.025Z,96483.59
2022-11-23T06:18:53.780Z,96485.34
2022-11-23T06:21:20.516Z,96488.84
2022-11-23T06:23:47.686Z,96486.19
2022-11-23T06:26:14.868Z,96479.28
2022-11-23T06:28:42.544Z,96484.19
2022-11-23T06:31:10.420Z,96484.91
2022-11-23T06:33:37.608Z,96491.69
2022-11-23T06:36:04.833Z,96485.63
2022-11-23T06:38:31.600Z,96488.88
2022-11-23T06:41:02.183Z,96485.25
2022-11-23T06:43:29.766Z,96497.13
2022-11-23T06:45:57.412Z,96497.13
2022-11-23T06:48:24.272Z,96495.25
2022-11-23T06:50:51.219Z,96498.53
2022-11-23T06:53:17.910Z,96506.03
2022-11-23T06:55:44.630Z,96503.44
2022-11-23T06:58:11.830Z,96497.38
2022-11-23T07:00:38.588Z,96499.75
2022-11-23T07:03:05.319Z,96505.59
2022-11-23T07:05:32.083Z,96500.22
2022-11-23T07:07:58.801Z,96500.81
2022-11-23T07:10:25.817Z,96507.34
2022-11-23T07:12:52.615Z,96506.22
2022-11-23T07:15:19.624Z,96514.53
2022-11-23T07:17:46.383Z,96515.13
2022-11-23T07:20:14.168Z,96521.34
2022-11-23T07:22:41.367Z,96525.13
2022-11-23T07:25:08.244Z,96531.69
2022-11-23T07:27:34.979Z,96539.06
2022-11-23T07:30:01.745Z,96536.19
2022-11-23T07:32:28.495Z,96535.00
2022-11-23T07:34:55.200Z,96539.09
2022-11-23T07:37:21.886Z,96531.38
2022-11-23T07:39:57.331Z,96537.13
2022-11-23T07:42:33.578Z,96536.91
2022-11-23T07:45:05.183Z,96547.56
2022-11-23T07:47:32.764Z,96545.56
2022-11-23T07:49:59.576Z,96546.88
2022-11-23T07:52:26.301Z,96547.47
2022-11-23T07:54:53.011Z,96564.34
2022-11-23T07:57:19.715Z,96553.00
2022-11-23T07:59:46.406Z,96562.25
2022-11-23T08:02:15.505Z,96563.66
2022-11-23T08:04:42.305Z,96565.28
2022-11-23T08:07:09.069Z,96557.31
2022-11-23T08:09:36.062Z,96564.84
2022-11-23T08:12:02.911Z,96562.97
2022-11-23T08:14:30.048Z,96555.94
2022-11-23T08:16:57.194Z,96559.22
2022-11-23T08:19:24.012Z,96561.44
2022-11-23T08:21:51.415Z,96559.47
2022-11-23T08:24:18.138Z,96563.59
2022-11-23T08:26:44.834Z,96564.16
2022-11-23T08:29:11.557Z,96563.09
2022-11-23T08:31:38.253Z,96559.25
2022-11-23T08:34:04.961Z,96564.41
2022-11-23T08:36:31.803Z,96563.22
2022-11-23T08:38:58.664Z,96553.84
2022-11-23T08:41:25.458Z,96562.41
2022-11-23T08:43:52.901Z,96559.47
2022-11-23T08:46:19.624Z,96561.13
2022-11-23T08:48:46.345Z,96560.19
2022-11-23T08:51:13.173Z,96556.44
2022-11-23T08:53:39.865Z,96558.06
2022-11-23T08:56:07.928Z,96550.78
2022-11-23T08:58:34.638Z,96560.66
2022-11-23T09:01:01.435Z,96558.25
2022-11-23T09:03:28.166Z,96559.44
2022-11-23T09:06:00.630Z,96559.53
2022-11-23T09:08:28.516Z,96545.88
2022-11-23T09:11:02.719Z,96565.00
2022-11-23T09:13:29.931Z,96560.31
2022-11-23T09:16:01.770Z,96559.22
2022-11-23T09:18:33.584Z,96558.34
2022-11-23T09:21:05.919Z,96541.84
2022-11-23T09:23:34.164Z,96548.81
2022-11-23T09:26:03.424Z,96551.06
2022-11-23T09:28:31.768Z,96553.59
2022-11-23T09:30:58.599Z,96542.88
2022-11-23T09:33:25.545Z,96543.31
2022-11-23T09:36:00.995Z,96543.94
2022-11-23T09:38:44.759Z,96543.53
2022-11-23T09:41:43.634Z,96549.13
2022-11-23T09:44:36.336Z,96554.75
2022-11-23T09:47:36.097Z,96544.34
2022-11-23T09:50:11.580Z,96551.22
2022-11-23T09:52:44.076Z,96546.38
2022-11-23T09:55:40.982Z,96540.31
2022-11-23T09:58:15.514Z,96539.94
2022-11-23T10:01:01.904Z,96539.69
2022-11-23T10:03:34.709Z,96540.38
2022-11-23T10:06:15.872Z,96535.34
2022-11-23T10:09:20.576Z,96529.59
2022-11-23T10:12:18.320Z,96519.53
2022-11-23T10:14:56.727Z,96520.44
2022-11-23T10:18:02.287Z,96527.94
2022-11-23T10:21:05.796Z,96522.91
2022-11-23T10:24:10.747Z,96520.13
2022-11-23T10:26:42.891Z,96524.16
2022-11-23T10:29:35.579Z,96517.09
2022-11-23T10:32:02.440Z,96504.31
2022-11-23T10:35:00.962Z,96507.38
2022-11-23T10:37:27.660Z,96505.75
2022-11-23T10:39:54.447Z,96515.41
2022-11-23T10:42:36.135Z,96498.72
2022-11-23T10:45:04.474Z,96491.31
2022-11-23T10:47:50.843Z,96493.16
2022-11-23T10:50:26.041Z,96479.34
2022-11-23T10:53:23.176Z,96486.13
2022-11-23T10:55:57.985Z,96480.56
2022-11-23T10:58:40.914Z,96487.06
2022-11-23T11:01:16.211Z,96481.25
2022-11-23T11:03:43.091Z,96479.97
2022-11-23T11:06:11.365Z,96486.44
2022-11-23T11:09:09.551Z,96486.22
2022-11-23T11:11:46.509Z,96495.84
2022-11-23T11:14:25.314Z,96488.44
2022-11-23T11:17:00.394Z,96482.66
2022-11-23T11:19:31.442Z,96480.78
2022-11-23T11:22:01.179Z,96488.94
2022-11-23T11:24:37.096Z,96472.38
2022-11-23T11:27:24.828Z,96474.41
2022-11-23T11:30:04.102Z,96462.72
2022-11-23T11:32:52.069Z,96465.88
2022-11-23T11:35:35.064Z,96458.47
2022-11-23T11:38:35.914Z,96454.91
2022-11-23T11:41:09.399Z,96460.94
2022-11-23T11:43:56.284Z,96459.13
2022-11-23T11:46:31.527Z,96455.03
2022-11-23T11:49:14.791Z,96457.50
2022-11-23T11:51:48.551Z,96447.81
2022-11-23T11:54:37.066Z,96449.75
2022-11-23T11:57:21.324Z,96447.31
2022-11-23T11:59:54.642Z,96446.16
2022-11-23T12:02:34.841Z,96448.47
2022-11-23T12:05:32.426Z,96436.34
2022-11-23T12:08:06.015Z,96437.63
2022-11-23T12:10:40.578Z,96433.09
2022-11-23T12:13:22.675Z,96432.06
2022-11-23T12:16:16.157Z,96430.59
2022-11-23T12:19:01.150Z,96432.22
2022-11-23T12:22:21.414Z,96427.22
2022-11-23T12:25:12.264Z,96420.63
2022-11-23T12:28:02.613Z,96421.41
2022-11-23T12:30:54.710Z,96424.63
2022-11-23T12:33:49.355Z,96424.13
2022-11-23T12:36:31.281Z,96417.78
2022-11-23T12:39:08.276Z,96422.84
2022-11-23T12:41:58.933Z,96428.00
2022-11-23T12:45:14.571Z,96416.88
2022-11-23T12:48:15.898Z,96415.63
2022-11-23T12:51:28.876Z,96414.97
2022-11-23T12:54:13.175Z,96404.75
2022-11-23T12:56:55.806Z,96407.03
2022-11-23T12:59:26.256Z,96408.09
2022-11-23T13:02:03.572Z,96404.53
2022-11-23T13:05:04.944Z,96403.31
2022-11-23T13:08:14.796Z,96397.00
2022-11-23T13:10:55.943Z,96396.13
2022-11-23T13:13:39.863Z,96399.53
2022-11-23T13:16:21.077Z,96398.75
2022-11-23T13:19:30.773Z,96398.09
2022-11-23T13:21:58.586Z,96396.16
2022-11-23T13:24:34.117Z,96396.16
2022-11-23T13:27:16.236Z,96393.09
2022-11-23T13:29:58.412Z,96401.41
2022-11-23T13:32:39.828Z,96393.34
2022-11-23T13:35:18.800Z,96398.91
2022-11-23T13:37:57.582Z,96392.84
2022-11-23T13:40:28.219Z,96353.84
2022-11-23T13:43:01.512Z,95611.28
2022-11-23T13:45:34.281Z,96376.28
2022-11-23T13:48:13.261Z,96368.34
2022-11-23T13:50:49.103Z,96368.34
2022-11-23T13:53:36.152Z,96360.41
2022-11-23T13:56:36.046Z,96358.75
2022-11-23T13:59:23.589Z,96372.34
2022-11-23T14:02:08.933Z,96356.31
2022-11-23T14:04:42.007Z,96353.44
2022-11-23T14:07:08.686Z,96344.88
2022-11-23T14:09:48.943Z,96349.41
2022-11-23T14:12:33.660Z,96342.66
2022-11-23T14:15:16.478Z,96350.47
2022-11-23T14:18:13.936Z,96355.91
2022-11-23T14:20:56.751Z,96354.75
2022-11-23T14:24:14.203Z,96372.75
2022-11-23T14:27:46.164Z,96366.69
2022-11-23T14:30:38.770Z,96361.41
2022-11-23T14:33:32.799Z,96360.31
2022-11-23T14:36:27.016Z,96360.16
2022-11-23T14:39:39.380Z,96363.06
2022-11-23T14:42:16.946Z,96370.91
2022-11-23T14:44:45.205Z,96374.53
2022-11-23T14:47:12.399Z,96371.94
2022-11-23T14:49:51.086Z,96367.44
2022-11-23T14:52:34.464Z,96363.91
2022-11-23T14:55:05.706Z,96365.25
2022-11-23T14:57:44.072Z,96372.13
2022-11-23T15:00:44.420Z,96373.31
2022-11-23T15:03:49.528Z,96369.28
2022-11-23T15:06:17.330Z,96373.44
2022-11-23T15:09:39.439Z,96374.22
2022-11-23T15:12:25.816Z,96377.41
2022-11-23T15:14:57.189Z,96373.25
2022-11-23T15:17:25.486Z,96368.66
2022-11-23T15:20:04.037Z,96375.94
2022-11-23T15:22:34.226Z,96383.75
2022-11-23T15:25:11.603Z,96378.28
2022-11-23T15:27:41.830Z,96375.19
2022-11-23T15:30:17.569Z,96391.56
2022-11-23T15:32:44.638Z,96383.16
2022-11-23T15:35:15.630Z,96384.78
2022-11-23T15:37:51.627Z,96384.91
2022-11-23T15:40:19.509Z,96390.22
2022-11-23T15:42:50.936Z,96392.81
2022-11-23T15:45:41.922Z,96391.25
2022-11-23T15:48:26.835Z,96386.63
2022-11-23T15:50:59.247Z,96385.66
2022-11-23T15:53:49.090Z,96385.53
2022-11-23T15:56:38.341Z,96376.66
2022-11-23T15:59:34.945Z,96389.31
2022-11-23T16:02:05.089Z,96385.59
2022-11-23T16:04:40.061Z,96387.34
2022-11-23T16:07:25.945Z,96392.91
2022-11-23T16:10:29.420Z,96394.50
2022-11-23T16:13:00.279Z,96399.28
2022-11-23T16:15:44.363Z,96397.31
2022-11-23T16:18:27.616Z,96394.19
2022-11-23T16:21:04.825Z,96397.53
2022-11-23T16:23:54.754Z,96399.97
2022-11-23T16:26:33.217Z,96394.63
2022-11-23T16:29:01.291Z,96386.00
2022-11-23T16:31:43.119Z,96387.47
2022-11-23T16:34:18.156Z,96378.56
2022-11-23T16:36:45.664Z,96378.97
2022-11-23T16:39:12.411Z,96380.28
2022-11-23T16:41:39.199Z,96381.47
2022-11-23T16:44:05.897Z,96384.44
2022-11-23T16:46:33.031Z,96386.44
2022-11-23T16:49:00.550Z,96374.06
2022-11-23T16:51:27.621Z,96383.13
2022-11-23T16:54:13.118Z,96381.72
2022-11-23T16:56:41.047Z,96388.91
2022-11-23T16:59:18.468Z,96380.72
2022-11-23T17:01:56.733Z,96388.13
2022-11-23T17:04:25.301Z,96389.34
2022-11-23T17:06:52.095Z,96394.03
2022-11-23T17:09:18.796Z,96400.41
2022-11-23T17:11:50.196Z,96398.06
2022-11-23T17:14:19.246Z,96396.56
2022-11-23T17:16:46.602Z,96404.44
2022-11-23T17:19:20.193Z,96399.50
2022-11-23T17:21:47.553Z,96400.69
2022-11-23T17:24:14.349Z,96415.47
2022-11-23T17:26:46.317Z,96413.84
2022-11-23T17:29:18.943Z,96426.13
2022-11-23T17:31:47.604Z,96423.81
2022-11-23T17:34:15.251Z,96432.03
2022-11-23T17:36:45.434Z,96428.78
2022-11-23T17:39:33.361Z,96431.56
2022-11-23T17:42:04.530Z,96436.84
2022-11-23T17:44:32.336Z,96442.38
2022-11-23T17:47:00.385Z,96433.09
2022-11-23T17:49:28.181Z,96455.59
2022-11-23T17:51:55.611Z,96460.16
2022-11-23T17:54:23.738Z,96453.47
2022-11-23T17:56:51.735Z,96449.53
2022-11-23T17:59:19.010Z,96458.41
2022-11-23T18:01:45.847Z,96466.50
2022-11-23T18:04:12.585Z,96466.06
2022-11-23T18:06:39.299Z,96461.34
2022-11-23T18:09:06.444Z,96462.66
2022-11-23T18:11:33.209Z,96472.47
2022-11-23T18:14:00.056Z,96470.00
2022-11-23T18:16:26.845Z,96475.53
2022-11-23T18:18:53.867Z,96474.00
2022-11-23T18:21:20.650Z,96471.56
2022-11-23T18:23:47.421Z,96475.06
2022-11-23T18:26:26.933Z,96476.00
2022-11-23T18:28:54.137Z,96483.94
2022-11-23T18:31:21.187Z,96479.84
2022-11-23T18:33:48.015Z,96478.44
2022-11-23T18:36:15.181Z,96488.38
2022-11-23T18:38:44.926Z,96494.00
2022-11-23T18:41:16.547Z,96496.06
2022-11-23T18:43:44.669Z,96493.84
2022-11-23T18:46:19.066Z,96501.81
2022-11-23T18:48:48.721Z,96499.56
2022-11-23T18:51:16.505Z,96500.84
2022-11-23T18:53:47.206Z,96489.94
2022-11-23T18:56:13.954Z,96499.56
2022-11-23T18:58:44.139Z,96504.78
2022-11-23T19:01:18.174Z,96504.19
2022-11-23T19:03:47.889Z,96505.38
2022-11-23T19:06:17.390Z,96491.09
2022-11-23T19:08:53.236Z,96509.28
2022-11-23T19:11:23.177Z,96514.91
2022-11-23T19:13:53.806Z,96524.72
2022-11-23T19:16:24.471Z,96524.22
2022-11-23T19:18:57.837Z,96533.09
2022-11-23T19:21:29.181Z,96541.75
2022-11-23T19:23:57.876Z,96538.22
2022-11-23T19:26:27.113Z,96547.47
2022-11-23T19:28:55.508Z,96548.31
2022-11-23T19:31:29.270Z,96547.47
2022-11-23T19:34:03.170Z,96553.22
2022-11-23T19:36:33.143Z,96556.31
2022-11-23T19:39:03.048Z,96565.78
2022-11-23T19:41:30.899Z,96558.25
2022-11-23T19:43:59.545Z,96556.63
2022-11-23T19:46:27.988Z,96567.53
2022-11-23T19:48:57.110Z,96570.59
2022-11-23T19:51:24.881Z,96568.50
2022-11-23T19:53:51.743Z,96574.16
2022-11-23T19:56:25.099Z,96566.09
2022-11-23T19:58:58.107Z,96574.41
2022-11-23T20:01:28.348Z,96570.59
2022-11-23T20:03:57.801Z,96576.34
2022-11-23T20:06:28.295Z,96580.81
2022-11-23T20:08:59.203Z,96586.09
2022-11-23T20:11:30.720Z,96590.19
2022-11-23T20:13:58.652Z,96586.44
2022-11-23T20:16:28.051Z,96587.66
2022-11-23T20:19:00.971Z,96591.66
2022-11-23T20:21:30.016Z,96602.66
2022-11-23T20:24:15.785Z,96610.16
2022-11-23T20:26:43.239Z,96609.97
2022-11-23T20:29:10.634Z,96615.81
2022-11-23T20:31:38.454Z,96632.91
2022-11-23T20:34:08.108Z,96642.28
2022-11-23T20:36:38.003Z,96660.91
2022-11-23T20:39:10.036Z,96665.94
2022-11-23T20:41:38.480Z,96668.53
2022-11-23T20:44:12.508Z,96668.53
2022-11-23T20:49:26.875Z,96672.53
2022-11-23T20:51:53.573Z,96672.19
2022-11-23T20:54:20.281Z,96680.63
2022-11-23T20:56:46.980Z,96679.59
2022-11-23T20:59:13.769Z,96679.38
2022-11-23T21:01:40.727Z,96683.25
2022-11-23T21:04:08.737Z,96684.78
2022-11-23T21:06:38.941Z,96688.06
2022-11-23T21:09:08.782Z,96693.03
2022-11-23T21:11:54.221Z,96686.81
2022-11-23T21:14:24.534Z,96691.84
2022-11-23T21:16:58.260Z,96701.94
2022-11-23T21:19:31.362Z,96702.75
2022-11-23T21:22:02.433Z,96696.91
2022-11-23T21:24:29.516Z,96696.78
2022-11-23T21:26:56.366Z,96702.88
2022-11-23T21:29:23.763Z,96702.16
2022-11-23T21:31:50.684Z,96718.56
2022-11-23T21:34:24.122Z,96712.47
2022-11-23T21:36:52.391Z,96716.69
2022-11-23T21:39:20.082Z,96711.53
2022-11-23T21:41:50.358Z,96720.22
2022-11-23T21:44:18.207Z,96709.91
2022-11-23T21:46:45.094Z,96715.75
2022-11-23T21:49:12.785Z,96711.31
2022-11-23T21:51:42.254Z,96721.41
2022-11-23T21:54:15.707Z,96719.56
2022-11-23T21:56:47.274Z,96716.84
2022-11-23T21:59:14.333Z,96717.69
2022-11-23T22:01:41.681Z,96717.91
2022-11-23T22:04:12.392Z,96721.41
2022-11-23T22:06:41.811Z,96725.72
2022-11-23T22:09:10.554Z,96743.59
2022-11-23T22:11:41.542Z,96734.91
2022-11-23T22:14:12.122Z,96734.19
2022-11-23T22:16:45.244Z,96740.19
2022-11-23T22:19:14.867Z,96739.25
2022-11-23T22:21:43.701Z,96739.00
2022-11-23T22:24:16.933Z,96743.22
2022-11-23T22:26:45.507Z,96758.72
2022-11-23T22:29:12.923Z,96754.00
2022-11-23T22:31:40.116Z,96753.28
2022-11-23T22:34:10.957Z,96757.72
2022-11-23T22:36:37.653Z,96759.38
2022-11-23T22:39:06.875Z,96763.16
2022-11-23T22:41:36.422Z,96768.78
2022-11-23T22:44:05.808Z,96765.06
2022-11-23T22:46:32.840Z,96760.63
2022-11-23T22:48:59.674Z,96765.28
2022-11-23T22:51:28.899Z,96766.91
2022-11-23T22:54:00.085Z,96763.44
2022-11-23T22:56:28.889Z,96761.75
2022-11-23T22:58:56.046Z,96772.81
2022-11-23T23:01:27.578Z,96775.28
2022-11-23T23:03:56.790Z,96777.78
2022-11-23T23:06:26.990Z,96785.28
2022-11-23T23:08:56.752Z,96787.63
2022-11-23T23:11:26.569Z,96786.00
2022-11-23T23:13:53.521Z,96788.69
2022-11-23T23:16:21.148Z,96789.63
2022-11-23T23:18:48.280Z,96788.78
2022-11-23T23:21:18.979Z,96795.81
2022-11-23T23:23:49.507Z,96801.00
2022-11-23T23:26:19.272Z,96803.66
2022-11-23T23:28:46.481Z,96820.75
2022-11-23T23:31:16.765Z,96824.91
2022-11-23T23:33:45.503Z,96823.16
2022-11-23T23:36:19.676Z,96820.88
2022-11-23T23:38:46.592Z,96819.13
2022-11-23T23:41:14.826Z,96821.91
2022-11-23T23:43:42.779Z,96834.53
2022-11-23T23:46:13.420Z,96830.78
2022-11-23T23:48:41.550Z,96831.47
2022-11-23T23:51:10.917Z,96839.09
2022-11-23T23:53:38.921Z,96842.44
2022-11-23T23:56:12.089Z,96834.78
2022-11-23T23:58:39.267Z,96845.00
